sensor_id;sensor_type;location;lat;lon;timestamp;P1;durP1;ratioP1;P2;durP2;ratioP2
34369;SDS011;20635;55.812;37.560;2022-11-20T00:01:15;3.58;;;3.03;;
34369;SDS011;20635;55.812;37.560;2022-11-20T00:03:45;3.53;;;3.13;;
34369;SDS011;20635;55.812;37.560;2022-11-20T00:06:13;3.75;;;3.13;;
34369;SDS011;20635;55.812;37.560;2022-11-20T00:08:40;4.70;;;3.20;;
34369;SDS011;20635;55.812;37.560;2022-11-20T00:11:10;4.40;;;3.13;;
34369;SDS011;20635;55.812;37.560;2022-11-20T00:13:37;4.15;;;3.10;;
34369;SDS011;20635;55.812;37.560;2022-11-20T00:16:05;4.63;;;3.28;;
34369;SDS011;20635;55.812;37.560;2022-11-20T00:18:33;4.43;;;2.83;;
34369;SDS011;20635;55.812;37.560;2022-11-20T00:21:00;3.55;;;3.25;;
34369;SDS011;20635;55.812;37.560;2022-11-20T00:23:27;3.45;;;3.05;;
34369;SDS011;20635;55.812;37.560;2022-11-20T00:25:53;3.50;;;2.72;;
34369;SDS011;20635;55.812;37.560;2022-11-20T00:28:19;4.15;;;3.50;;
34369;SDS011;20635;55.812;37.560;2022-11-20T00:30:45;4.00;;;3.17;;
34369;SDS011;20635;55.812;37.560;2022-11-20T00:33:10;3.72;;;3.10;;
34369;SDS011;20635;55.812;37.560;2022-11-20T00:35:36;3.70;;;2.88;;
34369;SDS011;20635;55.812;37.560;2022-11-20T00:38:02;3.10;;;2.80;;
34369;SDS011;20635;55.812;37.560;2022-11-20T00:40:28;4.78;;;3.67;;
34369;SDS011;20635;55.812;37.560;2022-11-20T00:42:53;4.65;;;3.60;;
34369;SDS011;20635;55.812;37.560;2022-11-20T00:45:20;3.85;;;3.13;;
34369;SDS011;20635;55.812;37.560;2022-11-20T00:47:46;3.83;;;3.15;;
34369;SDS011;20635;55.812;37.560;2022-11-20T00:50:12;3.60;;;3.05;;
34369;SDS011;20635;55.812;37.560;2022-11-20T00:52:37;4.65;;;2.60;;
34369;SDS011;20635;55.812;37.560;2022-11-20T00:55:03;4.00;;;2.80;;
34369;SDS011;20635;55.812;37.560;2022-11-20T00:57:30;3.83;;;3.40;;
34369;SDS011;20635;55.812;37.560;2022-11-20T00:59:56;3.55;;;2.97;;
34369;SDS011;20635;55.812;37.560;2022-11-20T01:02:22;4.07;;;3.05;;
34369;SDS011;20635;55.812;37.560;2022-11-20T01:04:48;3.50;;;3.03;;
34369;SDS011;20635;55.812;37.560;2022-11-20T01:07:14;3.67;;;3.10;;
34369;SDS011;20635;55.812;37.560;2022-11-20T01:09:40;3.67;;;2.90;;
34369;SDS011;20635;55.812;37.560;2022-11-20T01:12:05;3.33;;;3.03;;
34369;SDS011;20635;55.812;37.560;2022-11-20T01:14:31;3.35;;;2.67;;
34369;SDS011;20635;55.812;37.560;2022-11-20T01:16:57;3.17;;;2.88;;
34369;SDS011;20635;55.812;37.560;2022-11-20T01:19:23;3.25;;;2.95;;
34369;SDS011;20635;55.812;37.560;2022-11-20T01:21:50;3.40;;;2.55;;
34369;SDS011;20635;55.812;37.560;2022-11-20T01:24:19;3.78;;;2.95;;
34369;SDS011;20635;55.812;37.560;2022-11-20T01:26:47;2.78;;;2.40;;
34369;SDS011;20635;55.812;37.560;2022-11-20T01:29:23;3.53;;;3.00;;
34369;SDS011;20635;55.812;37.560;2022-11-20T01:31:50;2.78;;;2.35;;
34369;SDS011;20635;55.812;37.560;2022-11-20T01:34:18;3.28;;;2.75;;
34369;SDS011;20635;55.812;37.560;2022-11-20T01:36:45;2.85;;;2.58;;
34369;SDS011;20635;55.812;37.560;2022-11-20T01:39:29;3.53;;;2.65;;
34369;SDS011;20635;55.812;37.560;2022-11-20T01:41:55;2.70;;;2.30;;
34369;SDS011;20635;55.812;37.560;2022-11-20T01:50:15;2.50;;;2.30;;
34369;SDS011;20635;55.812;37.560;2022-11-20T01:52:49;3.13;;;2.83;;
34369;SDS011;20635;55.812;37.560;2022-11-20T01:55:31;3.65;;;2.80;;
34369;SDS011;20635;55.812;37.560;2022-11-20T01:58:01;2.85;;;2.50;;
34369;SDS011;20635;55.812;37.560;2022-11-20T02:00:28;2.88;;;2.58;;
34369;SDS011;20635;55.812;37.560;2022-11-20T02:02:55;2.95;;;2.65;;
34369;SDS011;20635;55.812;37.560;2022-11-20T02:05:26;2.78;;;2.45;;
34369;SDS011;20635;55.812;37.560;2022-11-20T02:08:13;2.90;;;2.17;;
34369;SDS011;20635;55.812;37.560;2022-11-20T02:10:39;2.55;;;2.35;;
34369;SDS011;20635;55.812;37.560;2022-11-20T02:13:05;3.35;;;2.40;;
34369;SDS011;20635;55.812;37.560;2022-11-20T02:15:49;2.38;;;2.03;;
34369;SDS011;20635;55.812;37.560;2022-11-20T02:18:17;2.50;;;2.30;;
34369;SDS011;20635;55.812;37.560;2022-11-20T02:20:45;2.40;;;2.20;;
34369;SDS011;20635;55.812;37.560;2022-11-20T02:23:33;2.72;;;2.42;;
34369;SDS011;20635;55.812;37.560;2022-11-20T02:26:09;2.63;;;2.28;;
34369;SDS011;20635;55.812;37.560;2022-11-20T02:28:38;2.72;;;2.35;;
34369;SDS011;20635;55.812;37.560;2022-11-20T02:31:04;3.80;;;2.80;;
34369;SDS011;20635;55.812;37.560;2022-11-20T02:33:30;2.42;;;2.22;;
34369;SDS011;20635;55.812;37.560;2022-11-20T02:35:56;3.00;;;2.70;;
34369;SDS011;20635;55.812;37.560;2022-11-20T02:38:22;3.33;;;2.70;;
34369;SDS011;20635;55.812;37.560;2022-11-20T02:40:48;2.38;;;2.17;;
34369;SDS011;20635;55.812;37.560;2022-11-20T02:43:15;2.75;;;2.55;;
34369;SDS011;20635;55.812;37.560;2022-11-20T02:45:41;4.22;;;2.40;;
34369;SDS011;20635;55.812;37.560;2022-11-20T02:48:07;3.20;;;2.78;;
34369;SDS011;20635;55.812;37.560;2022-11-20T02:50:33;2.50;;;2.30;;
34369;SDS011;20635;55.812;37.560;2022-11-20T02:53:01;2.85;;;2.60;;
34369;SDS011;20635;55.812;37.560;2022-11-20T02:55:27;3.33;;;3.03;;
34369;SDS011;20635;55.812;37.560;2022-11-20T02:57:53;2.90;;;2.58;;
34369;SDS011;20635;55.812;37.560;2022-11-20T03:00:19;3.65;;;3.00;;
34369;SDS011;20635;55.812;37.560;2022-11-20T03:02:45;2.90;;;2.38;;
34369;SDS011;20635;55.812;37.560;2022-11-20T03:05:11;2.60;;;2.40;;
34369;SDS011;20635;55.812;37.560;2022-11-20T03:07:37;2.83;;;2.50;;
34369;SDS011;20635;55.812;37.560;2022-11-20T03:10:04;4.18;;;2.95;;
34369;SDS011;20635;55.812;37.560;2022-11-20T03:12:30;3.08;;;2.70;;
34369;SDS011;20635;55.812;37.560;2022-11-20T03:14:56;2.75;;;2.38;;
34369;SDS011;20635;55.812;37.560;2022-11-20T03:17:21;2.70;;;2.50;;
34369;SDS011;20635;55.812;37.560;2022-11-20T03:19:47;4.25;;;2.55;;
34369;SDS011;20635;55.812;37.560;2022-11-20T03:22:13;2.85;;;2.58;;
34369;SDS011;20635;55.812;37.560;2022-11-20T03:24:39;2.50;;;2.30;;
34369;SDS011;20635;55.812;37.560;2022-11-20T03:27:05;3.15;;;2.83;;
34369;SDS011;20635;55.812;37.560;2022-11-20T03:29:31;2.55;;;2.35;;
34369;SDS011;20635;55.812;37.560;2022-11-20T03:31:57;2.35;;;2.15;;
34369;SDS011;20635;55.812;37.560;2022-11-20T03:34:23;2.78;;;2.40;;
34369;SDS011;20635;55.812;37.560;2022-11-20T03:36:49;2.80;;;2.58;;
34369;SDS011;20635;55.812;37.560;2022-11-20T03:39:15;4.28;;;2.40;;
34369;SDS011;20635;55.812;37.560;2022-11-20T03:41:41;2.63;;;2.42;;
34369;SDS011;20635;55.812;37.560;2022-11-20T03:44:08;2.50;;;2.28;;
34369;SDS011;20635;55.812;37.560;2022-11-20T03:46:35;2.60;;;2.35;;
34369;SDS011;20635;55.812;37.560;2022-11-20T03:49:02;3.15;;;2.85;;
34369;SDS011;20635;55.812;37.560;2022-11-20T03:51:29;2.58;;;2.38;;
34369;SDS011;20635;55.812;37.560;2022-11-20T03:53:57;2.88;;;2.58;;
34369;SDS011;20635;55.812;37.560;2022-11-20T03:56:32;2.47;;;2.28;;
34369;SDS011;20635;55.812;37.560;2022-11-20T03:59:00;2.83;;;2.55;;
34369;SDS011;20635;55.812;37.560;2022-11-20T04:01:27;2.97;;;2.58;;
34369;SDS011;20635;55.812;37.560;2022-11-20T04:03:55;3.20;;;2.70;;
34369;SDS011;20635;55.812;37.560;2022-11-20T04:06:23;2.65;;;2.45;;
34369;SDS011;20635;55.812;37.560;2022-11-20T04:08:51;3.15;;;2.80;;
34369;SDS011;20635;55.812;37.560;2022-11-20T04:11:26;3.22;;;2.92;;
34369;SDS011;20635;55.812;37.560;2022-11-20T04:13:54;3.87;;;2.77;;
34369;SDS011;20635;55.812;37.560;2022-11-20T04:16:22;3.00;;;2.70;;
34369;SDS011;20635;55.812;37.560;2022-11-20T04:18:53;3.20;;;2.58;;
34369;SDS011;20635;55.812;37.560;2022-11-20T04:21:23;2.90;;;2.70;;
34369;SDS011;20635;55.812;37.560;2022-11-20T04:23:50;10.45;;;2.72;;
34369;SDS011;20635;55.812;37.560;2022-11-20T04:26:18;3.53;;;3.17;;
34369;SDS011;20635;55.812;37.560;2022-11-20T04:28:44;3.33;;;2.97;;
34369;SDS011;20635;55.812;37.560;2022-11-20T04:31:11;2.88;;;2.58;;
34369;SDS011;20635;55.812;37.560;2022-11-20T04:33:41;3.65;;;3.35;;
34369;SDS011;20635;55.812;37.560;2022-11-20T04:36:11;3.30;;;3.00;;
34369;SDS011;20635;55.812;37.560;2022-11-20T04:38:40;2.97;;;2.67;;
34369;SDS011;20635;55.812;37.560;2022-11-20T04:41:06;3.40;;;3.08;;
34369;SDS011;20635;55.812;37.560;2022-11-20T04:43:41;2.95;;;2.65;;
34369;SDS011;20635;55.812;37.560;2022-11-20T04:46:07;2.75;;;2.50;;
34369;SDS011;20635;55.812;37.560;2022-11-20T04:48:34;3.75;;;2.88;;
34369;SDS011;20635;55.812;37.560;2022-11-20T04:51:02;2.95;;;2.65;;
34369;SDS011;20635;55.812;37.560;2022-11-20T04:53:29;3.55;;;2.75;;
34369;SDS011;20635;55.812;37.560;2022-11-20T04:56:02;3.50;;;3.10;;
34369;SDS011;20635;55.812;37.560;2022-11-20T04:58:29;3.13;;;2.80;;
34369;SDS011;20635;55.812;37.560;2022-11-20T05:01:05;3.30;;;3.00;;
34369;SDS011;20635;55.812;37.560;2022-11-20T05:03:32;3.40;;;3.10;;
34369;SDS011;20635;55.812;37.560;2022-11-20T05:06:02;4.30;;;3.13;;
34369;SDS011;20635;55.812;37.560;2022-11-20T05:08:30;3.25;;;2.97;;
34369;SDS011;20635;55.812;37.560;2022-11-20T05:11:04;2.88;;;2.58;;
34369;SDS011;20635;55.812;37.560;2022-11-20T05:13:34;2.95;;;2.65;;
34369;SDS011;20635;55.812;37.560;2022-11-20T05:16:02;3.72;;;3.05;;
34369;SDS011;20635;55.812;37.560;2022-11-20T05:18:30;5.10;;;2.83;;
34369;SDS011;20635;55.812;37.560;2022-11-20T05:20:57;3.60;;;2.80;;
34369;SDS011;20635;55.812;37.560;2022-11-20T05:23:23;3.72;;;3.05;;
34369;SDS011;20635;55.812;37.560;2022-11-20T05:25:53;4.45;;;3.60;;
34369;SDS011;20635;55.812;37.560;2022-11-20T05:28:20;4.47;;;3.35;;
34369;SDS011;20635;55.812;37.560;2022-11-20T05:30:46;4.65;;;3.47;;
34369;SDS011;20635;55.812;37.560;2022-11-20T05:33:12;5.93;;;3.50;;
34369;SDS011;20635;55.812;37.560;2022-11-20T05:35:38;7.45;;;3.88;;
34369;SDS011;20635;55.812;37.560;2022-11-20T05:38:04;4.97;;;3.58;;
34369;SDS011;20635;55.812;37.560;2022-11-20T05:40:29;4.47;;;3.30;;
34369;SDS011;20635;55.812;37.560;2022-11-20T05:42:55;4.68;;;3.47;;
34369;SDS011;20635;55.812;37.560;2022-11-20T05:45:21;4.47;;;3.17;;
34369;SDS011;20635;55.812;37.560;2022-11-20T05:47:47;4.22;;;3.25;;
34369;SDS011;20635;55.812;37.560;2022-11-20T05:50:14;6.55;;;3.50;;
34369;SDS011;20635;55.812;37.560;2022-11-20T05:52:41;6.18;;;3.95;;
34369;SDS011;20635;55.812;37.560;2022-11-20T05:55:07;5.00;;;3.63;;
34369;SDS011;20635;55.812;37.560;2022-11-20T05:57:33;4.90;;;3.83;;
34369;SDS011;20635;55.812;37.560;2022-11-20T06:00:00;5.55;;;4.47;;
34369;SDS011;20635;55.812;37.560;2022-11-20T06:02:26;4.70;;;3.63;;
34369;SDS011;20635;55.812;37.560;2022-11-20T06:04:52;4.43;;;3.88;;
34369;SDS011;20635;55.812;37.560;2022-11-20T06:07:18;4.97;;;3.83;;
34369;SDS011;20635;55.812;37.560;2022-11-20T06:09:44;5.22;;;3.78;;
34369;SDS011;20635;55.812;37.560;2022-11-20T06:12:10;5.60;;;4.20;;
34369;SDS011;20635;55.812;37.560;2022-11-20T06:14:36;5.40;;;4.10;;
34369;SDS011;20635;55.812;37.560;2022-11-20T06:17:02;4.68;;;3.97;;
34369;SDS011;20635;55.812;37.560;2022-11-20T06:19:27;4.53;;;3.60;;
34369;SDS011;20635;55.812;37.560;2022-11-20T06:21:53;5.75;;;4.28;;
34369;SDS011;20635;55.812;37.560;2022-11-20T06:24:19;5.35;;;3.80;;
34369;SDS011;20635;55.812;37.560;2022-11-20T06:26:45;5.15;;;4.00;;
34369;SDS011;20635;55.812;37.560;2022-11-20T06:29:11;4.72;;;3.50;;
34369;SDS011;20635;55.812;37.560;2022-11-20T06:31:37;4.80;;;3.53;;
34369;SDS011;20635;55.812;37.560;2022-11-20T06:34:06;4.88;;;4.10;;
34369;SDS011;20635;55.812;37.560;2022-11-20T06:36:33;5.82;;;3.72;;
34369;SDS011;20635;55.812;37.560;2022-11-20T06:38:59;5.72;;;4.25;;
34369;SDS011;20635;55.812;37.560;2022-11-20T06:41:25;5.25;;;3.80;;
34369;SDS011;20635;55.812;37.560;2022-11-20T06:43:51;4.40;;;3.92;;
34369;SDS011;20635;55.812;37.560;2022-11-20T06:46:18;9.65;;;4.05;;
34369;SDS011;20635;55.812;37.560;2022-11-20T06:48:45;5.10;;;3.65;;
34369;SDS011;20635;55.812;37.560;2022-11-20T06:51:11;5.18;;;3.70;;
34369;SDS011;20635;55.812;37.560;2022-11-20T06:53:37;5.70;;;3.30;;
34369;SDS011;20635;55.812;37.560;2022-11-20T06:56:03;4.35;;;3.53;;
34369;SDS011;20635;55.812;37.560;2022-11-20T06:58:30;4.45;;;4.00;;
34369;SDS011;20635;55.812;37.560;2022-11-20T07:00:58;5.05;;;3.90;;
34369;SDS011;20635;55.812;37.560;2022-11-20T07:03:27;4.40;;;3.70;;
34369;SDS011;20635;55.812;37.560;2022-11-20T07:05:56;5.57;;;3.90;;
34369;SDS011;20635;55.812;37.560;2022-11-20T07:08:23;4.82;;;3.83;;
34369;SDS011;20635;55.812;37.560;2022-11-20T07:10:50;5.20;;;4.10;;
34369;SDS011;20635;55.812;37.560;2022-11-20T07:13:16;4.82;;;3.95;;
34369;SDS011;20635;55.812;37.560;2022-11-20T07:15:42;5.57;;;3.85;;
34369;SDS011;20635;55.812;37.560;2022-11-20T07:18:08;5.53;;;3.88;;
34369;SDS011;20635;55.812;37.560;2022-11-20T07:20:34;6.22;;;4.05;;
34369;SDS011;20635;55.812;37.560;2022-11-20T07:23:00;10.10;;;4.47;;
34369;SDS011;20635;55.812;37.560;2022-11-20T07:25:26;7.65;;;4.35;;
34369;SDS011;20635;55.812;37.560;2022-11-20T07:27:56;5.85;;;3.90;;
34369;SDS011;20635;55.812;37.560;2022-11-20T07:30:24;5.82;;;4.30;;
34369;SDS011;20635;55.812;37.560;2022-11-20T07:32:50;5.93;;;4.47;;
34369;SDS011;20635;55.812;37.560;2022-11-20T07:35:17;6.45;;;4.60;;
34369;SDS011;20635;55.812;37.560;2022-11-20T07:37:43;4.40;;;3.83;;
34369;SDS011;20635;55.812;37.560;2022-11-20T07:40:11;6.20;;;4.47;;
34369;SDS011;20635;55.812;37.560;2022-11-20T07:42:38;4.38;;;3.97;;
34369;SDS011;20635;55.812;37.560;2022-11-20T07:45:04;7.78;;;4.68;;
34369;SDS011;20635;55.812;37.560;2022-11-20T07:47:36;5.50;;;4.60;;
34369;SDS011;20635;55.812;37.560;2022-11-20T07:50:02;5.10;;;4.60;;
34369;SDS011;20635;55.812;37.560;2022-11-20T07:52:28;4.15;;;3.72;;
34369;SDS011;20635;55.812;37.560;2022-11-20T07:54:54;5.55;;;4.60;;
34369;SDS011;20635;55.812;37.560;2022-11-20T07:57:20;4.80;;;4.25;;
34369;SDS011;20635;55.812;37.560;2022-11-20T07:59:46;4.97;;;4.47;;
34369;SDS011;20635;55.812;37.560;2022-11-20T08:02:12;5.35;;;4.72;;
34369;SDS011;20635;55.812;37.560;2022-11-20T08:04:38;4.72;;;4.32;;
34369;SDS011;20635;55.812;37.560;2022-11-20T08:07:03;4.57;;;3.92;;
34369;SDS011;20635;55.812;37.560;2022-11-20T08:09:29;5.68;;;4.28;;
34369;SDS011;20635;55.812;37.560;2022-11-20T08:11:55;5.43;;;4.53;;
34369;SDS011;20635;55.812;37.560;2022-11-20T08:14:40;5.78;;;4.70;;
34369;SDS011;20635;55.812;37.560;2022-11-20T08:17:05;5.97;;;5.38;;
34369;SDS011;20635;55.812;37.560;2022-11-20T08:19:31;5.32;;;4.47;;
34369;SDS011;20635;55.812;37.560;2022-11-20T08:21:57;5.75;;;4.68;;
34369;SDS011;20635;55.812;37.560;2022-11-20T08:24:23;5.28;;;4.78;;
34369;SDS011;20635;55.812;37.560;2022-11-20T08:26:50;5.80;;;4.78;;
34369;SDS011;20635;55.812;37.560;2022-11-20T08:29:15;5.07;;;4.57;;
34369;SDS011;20635;55.812;37.560;2022-11-20T08:31:41;7.20;;;4.60;;
34369;SDS011;20635;55.812;37.560;2022-11-20T08:34:07;4.45;;;4.03;;
34369;SDS011;20635;55.812;37.560;2022-11-20T08:36:33;5.38;;;4.22;;
34369;SDS011;20635;55.812;37.560;2022-11-20T08:39:00;5.20;;;4.70;;
34369;SDS011;20635;55.812;37.560;2022-11-20T08:41:26;4.65;;;4.20;;
34369;SDS011;20635;55.812;37.560;2022-11-20T08:43:53;6.45;;;4.22;;
34369;SDS011;20635;55.812;37.560;2022-11-20T08:46:21;6.35;;;4.30;;
34369;SDS011;20635;55.812;37.560;2022-11-20T08:48:49;5.80;;;4.55;;
34369;SDS011;20635;55.812;37.560;2022-11-20T08:51:15;5.35;;;4.20;;
34369;SDS011;20635;55.812;37.560;2022-11-20T08:53:41;4.43;;;4.03;;
34369;SDS011;20635;55.812;37.560;2022-11-20T08:56:07;6.20;;;3.95;;
34369;SDS011;20635;55.812;37.560;2022-11-20T08:58:35;5.70;;;4.25;;
34369;SDS011;20635;55.812;37.560;2022-11-20T09:01:01;5.03;;;3.75;;
34369;SDS011;20635;55.812;37.560;2022-11-20T09:03:27;5.00;;;4.22;;
34369;SDS011;20635;55.812;37.560;2022-11-20T09:06:03;5.40;;;4.07;;
34369;SDS011;20635;55.812;37.560;2022-11-20T09:08:31;4.40;;;3.97;;
34369;SDS011;20635;55.812;37.560;2022-11-20T09:10:58;4.65;;;4.10;;
34369;SDS011;20635;55.812;37.560;2022-11-20T09:13:25;4.70;;;3.85;;
34369;SDS011;20635;55.812;37.560;2022-11-20T09:15:53;5.30;;;4.30;;
34369;SDS011;20635;55.812;37.560;2022-11-20T09:18:23;4.55;;;3.97;;
34369;SDS011;20635;55.812;37.560;2022-11-20T09:20:49;4.47;;;4.03;;
34369;SDS011;20635;55.812;37.560;2022-11-20T09:23:15;5.70;;;4.25;;
34369;SDS011;20635;55.812;37.560;2022-11-20T09:25:42;4.05;;;3.65;;
34369;SDS011;20635;55.812;37.560;2022-11-20T09:28:08;6.25;;;4.53;;
34369;SDS011;20635;55.812;37.560;2022-11-20T09:30:35;5.07;;;4.07;;
34369;SDS011;20635;55.812;37.560;2022-11-20T09:33:03;4.85;;;4.35;;
34369;SDS011;20635;55.812;37.560;2022-11-20T09:35:31;6.15;;;4.60;;
34369;SDS011;20635;55.812;37.560;2022-11-20T09:37:58;5.63;;;4.55;;
34369;SDS011;20635;55.812;37.560;2022-11-20T09:40:25;5.72;;;4.78;;
34369;SDS011;20635;55.812;37.560;2022-11-20T09:42:55;6.00;;;5.15;;
34369;SDS011;20635;55.812;37.560;2022-11-20T09:54:22;7.35;;;5.43;;
34369;SDS011;20635;55.812;37.560;2022-11-20T09:56:53;7.20;;;4.95;;
34369;SDS011;20635;55.812;37.560;2022-11-20T09:59:27;5.93;;;4.65;;
34369;SDS011;20635;55.812;37.560;2022-11-20T10:02:00;5.97;;;5.00;;
34369;SDS011;20635;55.812;37.560;2022-11-20T10:04:28;8.10;;;4.88;;
34369;SDS011;20635;55.812;37.560;2022-11-20T10:09:43;7.28;;;4.60;;
34369;SDS011;20635;55.812;37.560;2022-11-20T10:17:26;5.35;;;4.68;;
34369;SDS011;20635;55.812;37.560;2022-11-20T10:20:06;8.32;;;5.03;;
34369;SDS011;20635;55.812;37.560;2022-11-20T10:28:30;8.32;;;4.80;;
34369;SDS011;20635;55.812;37.560;2022-11-20T10:33:59;9.38;;;5.45;;
34369;SDS011;20635;55.812;37.560;2022-11-20T10:36:36;6.68;;;4.50;;
34369;SDS011;20635;55.812;37.560;2022-11-20T10:42:04;8.88;;;4.38;;
34369;SDS011;20635;55.812;37.560;2022-11-20T10:44:37;5.57;;;4.40;;
34369;SDS011;20635;55.812;37.560;2022-11-20T10:47:26;4.55;;;3.80;;
34369;SDS011;20635;55.812;37.560;2022-11-20T10:49:55;5.28;;;3.88;;
34369;SDS011;20635;55.812;37.560;2022-11-20T10:52:37;5.90;;;4.13;;
34369;SDS011;20635;55.812;37.560;2022-11-20T10:55:33;6.78;;;4.15;;
34369;SDS011;20635;55.812;37.560;2022-11-20T11:00:39;5.65;;;4.70;;
34369;SDS011;20635;55.812;37.560;2022-11-20T11:03:14;6.32;;;4.63;;
34369;SDS011;20635;55.812;37.560;2022-11-20T11:08:17;7.72;;;5.07;;
34369;SDS011;20635;55.812;37.560;2022-11-20T11:13:28;6.88;;;4.80;;
34369;SDS011;20635;55.812;37.560;2022-11-20T11:15:56;7.97;;;4.80;;
34369;SDS011;20635;55.812;37.560;2022-11-20T11:18:30;6.68;;;4.72;;
34369;SDS011;20635;55.812;37.560;2022-11-20T11:21:01;6.75;;;4.53;;
34369;SDS011;20635;55.812;37.560;2022-11-20T11:23:36;5.28;;;4.40;;
34369;SDS011;20635;55.812;37.560;2022-11-20T11:26:05;5.82;;;4.95;;
34369;SDS011;20635;55.812;37.560;2022-11-20T11:28:32;7.85;;;5.03;;
34369;SDS011;20635;55.812;37.560;2022-11-20T11:30:58;6.63;;;4.60;;
34369;SDS011;20635;55.812;37.560;2022-11-20T11:33:26;5.25;;;4.15;;
34369;SDS011;20635;55.812;37.560;2022-11-20T11:36:03;5.50;;;4.05;;
34369;SDS011;20635;55.812;37.560;2022-11-20T11:38:41;5.10;;;4.10;;
34369;SDS011;20635;55.812;37.560;2022-11-20T11:41:11;6.78;;;5.03;;
34369;SDS011;20635;55.812;37.560;2022-11-20T11:43:48;5.07;;;3.72;;
34369;SDS011;20635;55.812;37.560;2022-11-20T11:46:36;4.50;;;4.03;;
34369;SDS011;20635;55.812;37.560;2022-11-20T11:51:37;4.35;;;3.72;;
34369;SDS011;20635;55.812;37.560;2022-11-20T11:54:25;4.50;;;3.80;;
34369;SDS011;20635;55.812;37.560;2022-11-20T11:57:20;4.13;;;3.22;;
34369;SDS011;20635;55.812;37.560;2022-11-20T12:10:59;3.85;;;3.30;;
34369;SDS011;20635;55.812;37.560;2022-11-20T12:15:58;4.80;;;3.08;;
34369;SDS011;20635;55.812;37.560;2022-11-20T12:18:28;3.38;;;3.08;;
34369;SDS011;20635;55.812;37.560;2022-11-20T12:23:49;5.28;;;3.10;;
34369;SDS011;20635;55.812;37.560;2022-11-20T12:31:54;4.95;;;3.00;;
34369;SDS011;20635;55.812;37.560;2022-11-20T12:37:34;3.47;;;2.78;;
34369;SDS011;20635;55.812;37.560;2022-11-20T12:43:02;4.53;;;3.00;;
34369;SDS011;20635;55.812;37.560;2022-11-20T12:46:15;2.90;;;2.60;;
34369;SDS011;20635;55.812;37.560;2022-11-20T12:49:11;2.97;;;2.50;;
34369;SDS011;20635;55.812;37.560;2022-11-20T12:54:32;3.83;;;2.55;;
34369;SDS011;20635;55.812;37.560;2022-11-20T13:05:18;4.38;;;2.60;;
34369;SDS011;20635;55.812;37.560;2022-11-20T13:08:00;3.05;;;2.40;;
34369;SDS011;20635;55.812;37.560;2022-11-20T13:10:43;3.28;;;2.47;;
34369;SDS011;20635;55.812;37.560;2022-11-20T13:16:11;3.20;;;2.88;;
34369;SDS011;20635;55.812;37.560;2022-11-20T13:18:45;3.17;;;2.53;;
34369;SDS011;20635;55.812;37.560;2022-11-20T13:21:18;2.80;;;2.53;;
34369;SDS011;20635;55.812;37.560;2022-11-20T13:23:47;4.32;;;2.75;;
34369;SDS011;20635;55.812;37.560;2022-11-20T13:26:21;3.55;;;2.55;;
34369;SDS011;20635;55.812;37.560;2022-11-20T13:31:50;7.80;;;2.67;;
34369;SDS011;20635;55.812;37.560;2022-11-20T13:34:23;4.88;;;2.50;;
34369;SDS011;20635;55.812;37.560;2022-11-20T13:36:52;3.10;;;2.08;;
34369;SDS011;20635;55.812;37.560;2022-11-20T13:39:24;5.28;;;3.00;;
34369;SDS011;20635;55.812;37.560;2022-11-20T13:44:37;6.10;;;3.03;;
34369;SDS011;20635;55.812;37.560;2022-11-20T13:47:22;3.55;;;3.00;;
34369;SDS011;20635;55.812;37.560;2022-11-20T13:49:52;3.38;;;2.80;;
34369;SDS011;20635;55.812;37.560;2022-11-20T13:52:34;4.95;;;2.78;;
34369;SDS011;20635;55.812;37.560;2022-11-20T13:55:16;4.22;;;3.03;;
34369;SDS011;20635;55.812;37.560;2022-11-20T14:00:21;5.70;;;2.60;;
34369;SDS011;20635;55.812;37.560;2022-11-20T14:05:54;3.30;;;2.45;;
34369;SDS011;20635;55.812;37.560;2022-11-20T14:08:47;3.17;;;2.55;;
34369;SDS011;20635;55.812;37.560;2022-11-20T14:14:22;3.35;;;2.50;;
34369;SDS011;20635;55.812;37.560;2022-11-20T14:16:44;3.22;;;2.53;;
34369;SDS011;20635;55.812;37.560;2022-11-20T14:21:49;3.70;;;2.08;;
34369;SDS011;20635;55.812;37.560;2022-11-20T14:24:24;4.75;;;2.22;;
34369;SDS011;20635;55.812;37.560;2022-11-20T14:26:50;2.60;;;2.10;;
34369;SDS011;20635;55.812;37.560;2022-11-20T14:29:19;4.05;;;2.50;;
34369;SDS011;20635;55.812;37.560;2022-11-20T14:31:47;17.67;;;2.30;;
34369;SDS011;20635;55.812;37.560;2022-11-20T14:34:27;2.60;;;2.00;;
34369;SDS011;20635;55.812;37.560;2022-11-20T14:36:59;4.32;;;2.50;;
34369;SDS011;20635;55.812;37.560;2022-11-20T14:39:37;9.82;;;2.70;;
34369;SDS011;20635;55.812;37.560;2022-11-20T14:42:16;3.65;;;2.40;;
34369;SDS011;20635;55.812;37.560;2022-11-20T14:44:45;3.83;;;1.58;;
34369;SDS011;20635;55.812;37.560;2022-11-20T14:47:13;2.92;;;1.90;;
34369;SDS011;20635;55.812;37.560;2022-11-20T14:49:43;2.40;;;1.98;;
34369;SDS011;20635;55.812;37.560;2022-11-20T14:52:14;2.95;;;2.28;;
34369;SDS011;20635;55.812;37.560;2022-11-20T14:54:52;5.03;;;2.95;;
34369;SDS011;20635;55.812;37.560;2022-11-20T15:00:05;8.15;;;3.38;;
34369;SDS011;20635;55.812;37.560;2022-11-20T15:02:41;9.18;;;3.70;;
34369;SDS011;20635;55.812;37.560;2022-11-20T15:05:08;10.60;;;5.00;;
34369;SDS011;20635;55.812;37.560;2022-11-20T15:07:36;10.02;;;5.13;;
34369;SDS011;20635;55.812;37.560;2022-11-20T15:10:04;7.63;;;4.57;;
34369;SDS011;20635;55.812;37.560;2022-11-20T15:12:33;7.15;;;5.20;;
34369;SDS011;20635;55.812;37.560;2022-11-20T15:15:02;7.20;;;4.60;;
34369;SDS011;20635;55.812;37.560;2022-11-20T15:17:30;7.43;;;4.63;;
34369;SDS011;20635;55.812;37.560;2022-11-20T15:19:58;6.97;;;4.80;;
34369;SDS011;20635;55.812;37.560;2022-11-20T15:22:26;5.38;;;4.53;;
34369;SDS011;20635;55.812;37.560;2022-11-20T15:24:52;8.00;;;5.00;;
34369;SDS011;20635;55.812;37.560;2022-11-20T15:27:18;5.97;;;4.53;;
34369;SDS011;20635;55.812;37.560;2022-11-20T15:29:44;6.05;;;4.38;;
34369;SDS011;20635;55.812;37.560;2022-11-20T15:32:11;5.15;;;4.75;;
34369;SDS011;20635;55.812;37.560;2022-11-20T15:34:36;4.78;;;4.30;;
34369;SDS011;20635;55.812;37.560;2022-11-20T15:37:02;7.15;;;4.45;;
34369;SDS011;20635;55.812;37.560;2022-11-20T15:39:28;4.70;;;4.20;;
34369;SDS011;20635;55.812;37.560;2022-11-20T15:41:54;6.22;;;5.43;;
34369;SDS011;20635;55.812;37.560;2022-11-20T15:44:20;6.22;;;4.93;;
34369;SDS011;20635;55.812;37.560;2022-11-20T15:46:46;5.25;;;4.75;;
34369;SDS011;20635;55.812;37.560;2022-11-20T15:49:13;5.65;;;4.93;;
34369;SDS011;20635;55.812;37.560;2022-11-20T15:51:41;5.20;;;4.47;;
34369;SDS011;20635;55.812;37.560;2022-11-20T15:54:13;4.88;;;4.38;;
34369;SDS011;20635;55.812;37.560;2022-11-20T15:56:43;5.28;;;4.32;;
34369;SDS011;20635;55.812;37.560;2022-11-20T15:59:09;4.18;;;3.78;;
34369;SDS011;20635;55.812;37.560;2022-11-20T16:01:35;4.13;;;3.70;;
34369;SDS011;20635;55.812;37.560;2022-11-20T16:04:01;4.30;;;3.33;;
34369;SDS011;20635;55.812;37.560;2022-11-20T16:06:27;3.80;;;3.38;;
34369;SDS011;20635;55.812;37.560;2022-11-20T16:08:52;5.40;;;3.78;;
34369;SDS011;20635;55.812;37.560;2022-11-20T16:11:19;3.90;;;3.45;;
34369;SDS011;20635;55.812;37.560;2022-11-20T16:13:45;3.72;;;3.22;;
34369;SDS011;20635;55.812;37.560;2022-11-20T16:16:30;5.40;;;4.18;;
34369;SDS011;20635;55.812;37.560;2022-11-20T16:18:58;6.82;;;4.75;;
34369;SDS011;20635;55.812;37.560;2022-11-20T16:21:25;11.10;;;5.38;;
34369;SDS011;20635;55.812;37.560;2022-11-20T16:23:58;7.97;;;4.53;;
34369;SDS011;20635;55.812;37.560;2022-11-20T16:26:26;8.75;;;4.22;;
34369;SDS011;20635;55.812;37.560;2022-11-20T16:28:53;6.75;;;4.15;;
34369;SDS011;20635;55.812;37.560;2022-11-20T16:31:19;6.15;;;4.15;;